createdAt,value
2023-02-15T00:00:04.145Z,24.60
2023-02-15T00:02:30.819Z,27.20
2023-02-15T00:04:57.657Z,25.93
2023-02-15T00:07:24.394Z,24.17
2023-02-15T00:09:51.128Z,26.10
2023-02-15T00:12:18.064Z,28.77
2023-02-15T00:14:45.162Z,31.63
2023-02-15T00:17:11.999Z,27.87
2023-02-15T00:19:38.880Z,34.10
2023-02-15T00:22:05.651Z,29.67
2023-02-15T00:24:32.440Z,31.80
2023-02-15T00:26:59.544Z,28.70
2023-02-15T00:29:26.348Z,26.87
2023-02-15T00:31:53.573Z,31.80
2023-02-15T00:34:25.752Z,28.87
2023-02-15T00:36:52.720Z,27.10
2023-02-15T00:39:20.071Z,29.13
2023-02-15T00:41:47.582Z,25.47
2023-02-15T00:44:15.010Z,27.37
2023-02-15T00:46:41.780Z,28.70
2023-02-15T00:49:08.576Z,27.80
2023-02-15T00:51:35.318Z,28.67
2023-02-15T00:54:02.073Z,30.93
2023-02-15T00:56:29.428Z,29.17
2023-02-15T00:58:56.715Z,28.17
2023-02-15T01:01:24.421Z,28.77
2023-02-15T01:03:51.307Z,28.43
2023-02-15T01:06:19.111Z,28.17
2023-02-15T01:08:46.956Z,29.03
2023-02-15T01:11:25.326Z,27.77
2023-02-15T01:13:54.697Z,28.97
2023-02-15T01:16:21.860Z,28.90
2023-02-15T01:18:49.348Z,30.80
2023-02-15T01:21:18.653Z,31.10
2023-02-15T01:23:45.529Z,31.60
2023-02-15T01:26:12.442Z,28.23
2023-02-15T01:28:39.207Z,28.60
2023-02-15T01:31:08.088Z,26.90
2023-02-15T01:33:36.124Z,26.83
2023-02-15T01:36:03.688Z,33.30
2023-02-15T01:38:30.659Z,24.13
2023-02-15T01:41:16.095Z,24.73
2023-02-15T01:43:45.544Z,24.40
2023-02-15T01:46:13.987Z,24.70
2023-02-15T01:48:49.779Z,31.13
2023-02-15T01:51:20.957Z,26.87
2023-02-15T01:53:59.908Z,26.37
2023-02-15T01:56:31.436Z,28.00
2023-02-15T01:59:02.898Z,26.23
2023-02-15T02:01:29.991Z,25.27
2023-02-15T02:04:12.014Z,28.20
2023-02-15T02:06:39.980Z,24.80
2023-02-15T02:09:07.087Z,27.90
2023-02-15T02:11:35.317Z,26.00
2023-02-15T02:14:02.083Z,29.93
2023-02-15T02:16:37.635Z,25.43
2023-02-15T02:19:32.094Z,27.97
2023-02-15T02:22:17.236Z,26.40
2023-02-15T02:25:02.760Z,28.47
2023-02-15T02:27:35.487Z,24.53
2023-02-15T02:30:41.028Z,31.47
2023-02-15T02:33:21.324Z,27.10
2023-02-15T02:36:06.110Z,27.37
2023-02-15T02:39:00.137Z,26.03
2023-02-15T02:41:27.218Z,27.23
2023-02-15T02:44:07.492Z,21.90
2023-02-15T02:46:45.248Z,26.70
2023-02-15T02:49:12.864Z,45.50
2023-02-15T02:51:39.561Z,38.00
2023-02-15T02:54:08.140Z,30.23
2023-02-15T02:56:41.831Z,29.57
2023-02-15T02:59:25.262Z,28.97
2023-02-15T03:02:13.782Z,30.80
2023-02-15T03:04:45.445Z,27.73
2023-02-15T03:07:18.810Z,30.13
2023-02-15T03:09:49.852Z,32.00
2023-02-15T03:12:25.282Z,26.23
2023-02-15T03:14:56.025Z,28.67
2023-02-15T03:17:26.834Z,31.37
2023-02-15T03:19:56.661Z,27.23
2023-02-15T03:22:29.292Z,34.00
2023-02-15T03:25:10.454Z,25.90
2023-02-15T03:27:51.511Z,27.67
2023-02-15T03:30:21.849Z,26.37
2023-02-15T03:32:50.952Z,25.37
2023-02-15T03:35:18.772Z,24.27
2023-02-15T03:37:52.751Z,27.30
2023-02-15T03:40:41.666Z,24.70
2023-02-15T03:43:18.116Z,29.37
2023-02-15T03:45:56.119Z,30.33
2023-02-15T03:48:27.984Z,28.97
2023-02-15T03:51:22.197Z,29.13
2023-02-15T03:53:50.000Z,27.20
2023-02-15T03:56:16.698Z,26.33
2023-02-15T03:59:02.102Z,29.10
2023-02-15T04:01:54.737Z,25.80
2023-02-15T04:04:25.626Z,28.17
2023-02-15T04:06:52.525Z,28.20
2023-02-15T04:09:38.210Z,31.97
2023-02-15T04:12:05.387Z,25.67
2023-02-15T04:14:51.375Z,30.57
2023-02-15T04:17:18.059Z,27.33
2023-02-15T04:20:03.151Z,30.00
2023-02-15T04:22:48.641Z,28.23
2023-02-15T04:25:15.514Z,31.40
2023-02-15T04:27:48.329Z,30.90
2023-02-15T04:30:17.106Z,34.60
2023-02-15T04:32:43.906Z,28.47
2023-02-15T04:35:10.752Z,29.47
2023-02-15T04:37:37.935Z,30.47
2023-02-15T04:40:06.356Z,32.67
2023-02-15T04:42:33.757Z,28.90
2023-02-15T04:45:00.516Z,31.80
2023-02-15T04:47:27.635Z,30.03
2023-02-15T04:49:55.190Z,33.83
2023-02-15T04:52:23.377Z,27.43
2023-02-15T04:54:50.516Z,29.30
2023-02-15T04:57:17.679Z,30.07
2023-02-15T04:59:44.826Z,31.73
2023-02-15T05:02:11.550Z,31.63
2023-02-15T05:04:38.753Z,32.67
2023-02-15T05:07:05.505Z,37.87
2023-02-15T05:09:32.610Z,34.60
2023-02-15T05:11:59.324Z,34.20
2023-02-15T05:14:26.458Z,31.40
2023-02-15T05:16:54.829Z,30.13
2023-02-15T05:19:24.146Z,30.63
2023-02-15T05:21:51.271Z,40.40
2023-02-15T05:24:36.454Z,33.20
2023-02-15T05:27:22.457Z,31.83
2023-02-15T05:29:49.319Z,35.07
2023-02-15T05:32:16.621Z,32.37
2023-02-15T05:34:43.509Z,32.63
2023-02-15T05:37:10.709Z,28.87
2023-02-15T05:39:37.400Z,34.03
2023-02-15T05:42:04.339Z,38.87
2023-02-15T05:44:31.064Z,36.63
2023-02-15T05:46:57.790Z,38.27
2023-02-15T05:49:25.015Z,36.90
2023-02-15T05:51:51.779Z,39.00
2023-02-15T05:54:18.888Z,36.87
2023-02-15T05:56:45.999Z,39.03
2023-02-15T05:59:13.698Z,35.10
2023-02-15T06:01:40.835Z,39.33
2023-02-15T06:04:07.534Z,34.17
2023-02-15T06:06:35.478Z,39.50
2023-02-15T06:09:02.315Z,37.57
2023-02-15T06:11:29.115Z,36.43
2023-02-15T06:13:55.934Z,37.67
2023-02-15T06:16:23.278Z,36.23
2023-02-15T06:18:52.393Z,35.23
2023-02-15T06:21:20.391Z,35.83
2023-02-15T06:23:47.067Z,38.77
2023-02-15T06:26:13.790Z,34.40
2023-02-15T06:28:42.069Z,37.53
2023-02-15T06:31:09.352Z,38.63
2023-02-15T06:33:36.433Z,35.43
2023-02-15T06:36:04.770Z,30.90
2023-02-15T06:38:32.230Z,37.07
2023-02-15T06:40:59.152Z,36.23
2023-02-15T06:43:26.319Z,38.20
2023-02-15T06:45:53.512Z,34.37
2023-02-15T06:48:20.692Z,39.50
2023-02-15T06:50:47.798Z,38.03
2023-02-15T06:53:14.492Z,39.47
2023-02-15T06:55:41.229Z,43.67
2023-02-15T06:58:08.067Z,41.20
2023-02-15T07:00:35.167Z,40.50
2023-02-15T07:03:03.068Z,37.87
2023-02-15T07:05:31.920Z,36.87
2023-02-15T07:08:00.420Z,32.77
2023-02-15T07:10:27.891Z,40.13
2023-02-15T07:12:54.840Z,28.90
2023-02-15T07:15:23.131Z,34.53
2023-02-15T07:17:50.198Z,34.40
2023-02-15T07:20:20.315Z,41.10
2023-02-15T07:22:47.439Z,35.73
2023-02-15T07:25:14.826Z,39.17
2023-02-15T07:27:42.274Z,39.80
2023-02-15T07:30:14.404Z,36.13
2023-02-15T07:33:04.212Z,32.73
2023-02-15T07:35:31.724Z,27.60
2023-02-15T07:37:58.436Z,29.17
2023-02-15T07:40:25.367Z,33.33
2023-02-15T07:42:54.171Z,29.53
2023-02-15T07:45:21.751Z,30.13
2023-02-15T07:47:48.565Z,26.63
2023-02-15T07:50:15.433Z,29.30
2023-02-15T07:52:42.246Z,26.40
2023-02-15T07:55:09.863Z,23.87
2023-02-15T07:57:36.729Z,27.60
2023-02-15T08:00:04.715Z,30.67
2023-02-15T08:02:31.571Z,26.60
2023-02-15T08:04:58.322Z,28.33
2023-02-15T08:07:25.077Z,28.57
2023-02-15T08:09:51.781Z,28.40
2023-02-15T08:12:18.861Z,31.53
2023-02-15T08:14:45.609Z,35.83
2023-02-15T08:17:12.405Z,29.70
2023-02-15T08:19:39.125Z,31.50
2023-02-15T08:22:07.947Z,28.93
2023-02-15T08:24:40.299Z,33.43
2023-02-15T08:27:08.605Z,29.20
2023-02-15T08:29:37.557Z,24.50
2023-02-15T08:32:07.836Z,25.43
2023-02-15T08:34:40.084Z,26.90
2023-02-15T08:37:06.919Z,38.97
2023-02-15T08:39:34.206Z,33.43
2023-02-15T08:42:00.953Z,33.53
2023-02-15T08:44:27.736Z,29.33
2023-02-15T08:46:55.667Z,29.23
2023-02-15T08:49:23.180Z,29.73
2023-02-15T08:51:51.020Z,28.83
2023-02-15T08:54:20.487Z,30.17
2023-02-15T08:56:48.116Z,29.83
2023-02-15T08:59:20.371Z,29.60
2023-02-15T09:01:48.978Z,30.50
2023-02-15T09:04:16.820Z,37.37
2023-02-15T09:06:48.119Z,29.90
2023-02-15T09:09:16.050Z,30.93
2023-02-15T09:11:44.867Z,34.67
2023-02-15T09:14:18.055Z,31.63
2023-02-15T09:16:49.508Z,42.03
2023-02-15T09:19:21.034Z,42.60
2023-02-15T09:21:48.060Z,35.50
2023-02-15T09:24:16.748Z,40.77
2023-02-15T09:26:45.972Z,47.70
2023-02-15T09:29:13.895Z,42.93
2023-02-15T09:31:45.094Z,44.57
2023-02-15T09:34:14.205Z,43.37
2023-02-15T09:36:42.247Z,49.67
2023-02-15T09:39:16.080Z,47.53
2023-02-15T09:41:48.361Z,35.13
2023-02-15T09:44:39.869Z,37.07
2023-02-15T09:47:25.218Z,42.73
2023-02-15T09:50:41.019Z,44.70
2023-02-15T09:53:53.303Z,41.97
2023-02-15T09:56:40.556Z,38.00
2023-02-15T09:59:32.008Z,42.50
2023-02-15T10:02:27.998Z,37.97
2023-02-15T10:05:06.840Z,47.37
2023-02-15T10:07:56.481Z,46.93
2023-02-15T10:10:36.739Z,42.70
2023-02-15T10:13:31.924Z,41.70
2023-02-15T10:16:12.065Z,45.50
2023-02-15T10:18:53.889Z,38.80
2023-02-15T10:21:48.207Z,47.90
2023-02-15T10:24:25.609Z,40.03
2023-02-15T10:26:57.648Z,38.37
2023-02-15T10:29:28.253Z,46.00
2023-02-15T10:32:24.504Z,41.10
2023-02-15T10:35:02.593Z,47.37
2023-02-15T10:37:47.969Z,49.97
2023-02-15T10:40:52.614Z,48.43
2023-02-15T10:43:37.815Z,49.93
2023-02-15T10:46:34.584Z,41.70
2023-02-15T10:49:16.191Z,47.73
2023-02-15T10:51:42.873Z,42.50
2023-02-15T10:54:22.415Z,44.20
2023-02-15T10:57:03.750Z,60.43
2023-02-15T11:00:00.585Z,42.47
2023-02-15T11:02:43.463Z,40.83
2023-02-15T11:05:34.126Z,41.63
2023-02-15T11:08:04.918Z,40.17
2023-02-15T11:10:38.690Z,37.27
2023-02-15T11:13:29.352Z,45.93
2023-02-15T11:16:07.427Z,36.33
2023-02-15T11:18:40.098Z,49.87
2023-02-15T11:21:24.258Z,41.27
2023-02-15T11:23:52.310Z,41.53
2023-02-15T11:26:31.234Z,37.47
2023-02-15T11:29:30.415Z,40.63
2023-02-15T11:32:23.227Z,40.07
2023-02-15T11:35:01.724Z,38.43
2023-02-15T11:37:58.537Z,38.93
2023-02-15T11:40:29.403Z,76.97
2023-02-15T11:43:05.215Z,40.07
2023-02-15T11:45:36.160Z,42.70
2023-02-15T11:48:11.576Z,34.30
2023-02-15T11:50:38.605Z,27.87
2023-02-15T11:53:28.534Z,25.63
2023-02-15T11:55:56.325Z,33.70
2023-02-15T11:59:01.547Z,20.80
2023-02-15T12:02:00.951Z,21.60
2023-02-15T12:04:35.489Z,23.50
2023-02-15T12:07:24.062Z,26.03
2023-02-15T12:10:14.850Z,27.27
2023-02-15T12:12:41.823Z,30.47
2023-02-15T12:15:10.547Z,24.90
2023-02-15T12:17:51.313Z,27.00
2023-02-15T12:20:17.975Z,23.40
2023-02-15T12:23:02.973Z,23.70
2023-02-15T12:25:54.474Z,24.80
2023-02-15T12:28:34.914Z,29.10
2023-02-15T12:31:04.585Z,19.90
2023-02-15T12:33:46.472Z,20.83
2023-02-15T12:36:25.019Z,22.37
2023-02-15T12:39:20.638Z,26.87
2023-02-15T12:41:56.233Z,24.10
2023-02-15T12:44:27.002Z,24.53
2023-02-15T12:47:02.156Z,21.83
2023-02-15T12:49:38.682Z,28.37
2023-02-15T12:52:23.968Z,24.00
2023-02-15T12:54:51.923Z,23.37
2023-02-15T12:57:23.222Z,23.43
2023-02-15T12:59:56.480Z,23.23
2023-02-15T13:02:57.867Z,28.10
2023-02-15T13:05:38.123Z,27.63
2023-02-15T13:08:18.160Z,25.93
2023-02-15T13:11:05.187Z,33.63
2023-02-15T13:13:37.362Z,32.67
2023-02-15T13:16:13.277Z,26.20
2023-02-15T13:18:46.701Z,27.70
2023-02-15T13:21:17.673Z,29.40
2023-02-15T13:23:50.881Z,23.50
2023-02-15T13:26:22.175Z,24.40
2023-02-15T13:28:54.268Z,23.37
2023-02-15T13:31:25.745Z,24.87
2023-02-15T13:33:54.373Z,63.80
2023-02-15T13:36:35.792Z,24.20
2023-02-15T13:39:21.306Z,25.03
2023-02-15T13:41:54.360Z,26.90
2023-02-15T13:44:47.214Z,26.50
2023-02-15T13:47:37.834Z,24.73
2023-02-15T13:50:31.348Z,27.17
2023-02-15T13:53:20.660Z,23.03
2023-02-15T13:55:53.017Z,22.70
2023-02-15T13:58:28.908Z,27.20
2023-02-15T14:01:09.428Z,25.97
2023-02-15T14:03:45.105Z,40.33
2023-02-15T14:06:20.574Z,30.07
2023-02-15T14:09:12.145Z,26.37
2023-02-15T14:12:00.414Z,28.90
2023-02-15T14:15:09.312Z,27.40
2023-02-15T14:17:47.641Z,28.90
2023-02-15T14:20:33.080Z,25.37
2023-02-15T14:23:16.413Z,30.13
2023-02-15T14:26:01.587Z,29.00
2023-02-15T14:29:25.582Z,31.20
2023-02-15T14:31:58.483Z,27.40
2023-02-15T14:34:45.357Z,25.90
2023-02-15T14:37:14.772Z,27.13
2023-02-15T14:40:16.474Z,25.00
2023-02-15T14:42:48.835Z,24.60
2023-02-15T14:45:32.631Z,27.43
2023-02-15T14:48:16.412Z,24.90
2023-02-15T14:50:45.890Z,40.13
2023-02-15T14:53:30.848Z,32.20
2023-02-15T14:56:24.519Z,25.43
2023-02-15T14:58:51.149Z,23.90
2023-02-15T15:01:30.587Z,25.97
2023-02-15T15:04:04.062Z,26.93
2023-02-15T15:06:36.681Z,24.10
2023-02-15T15:09:22.239Z,35.17
2023-02-15T15:11:51.076Z,25.73
2023-02-15T15:14:33.129Z,25.73
2023-02-15T15:17:02.301Z,26.00
2023-02-15T15:19:52.240Z,27.23
2023-02-15T15:22:23.434Z,28.13
2023-02-15T15:24:53.352Z,30.17
2023-02-15T15:27:42.753Z,40.27
2023-02-15T15:30:15.366Z,47.50
2023-02-15T15:33:00.284Z,49.73
2023-02-15T15:35:44.997Z,40.63
2023-02-15T15:38:55.478Z,33.97
2023-02-15T15:41:43.887Z,38.60
2023-02-15T15:44:32.258Z,32.63
2023-02-15T15:47:20.736Z,31.63
2023-02-15T15:49:47.677Z,30.83
2023-02-15T15:52:19.498Z,46.40
2023-02-15T15:54:49.172Z,38.47
2023-02-15T15:57:30.923Z,23.23
2023-02-15T16:00:00.616Z,26.80
2023-02-15T16:02:27.803Z,28.20
2023-02-15T16:04:54.878Z,25.83
2023-02-15T16:07:26.703Z,37.33
2023-02-15T16:09:58.122Z,33.37
2023-02-15T16:12:25.838Z,34.03
2023-02-15T16:14:54.309Z,28.40
2023-02-15T16:17:25.007Z,27.93
2023-02-15T16:19:53.768Z,30.83
2023-02-15T16:22:28.803Z,32.50
2023-02-15T16:25:04.384Z,36.30
2023-02-15T16:27:39.518Z,31.27
2023-02-15T16:30:24.399Z,30.97
2023-02-15T16:33:12.964Z,40.53
2023-02-15T16:35:55.922Z,26.80
2023-02-15T16:38:48.484Z,33.37
2023-02-15T16:41:28.093Z,31.30
2023-02-15T16:43:57.823Z,32.50
2023-02-15T16:46:43.805Z,36.90
2023-02-15T16:49:23.812Z,30.63
2023-02-15T16:52:02.408Z,31.97
2023-02-15T16:54:30.935Z,26.60
2023-02-15T16:56:58.336Z,27.27
2023-02-15T16:59:40.738Z,32.07
2023-02-15T17:02:27.396Z,32.70
2023-02-15T17:05:08.272Z,42.93
2023-02-15T17:07:41.017Z,26.90
2023-02-15T17:10:29.289Z,36.23
2023-02-15T17:13:01.280Z,37.43
2023-02-15T17:15:37.051Z,30.77
2023-02-15T17:18:17.512Z,46.63
2023-02-15T17:20:45.655Z,34.03
2023-02-15T17:23:34.384Z,34.07
2023-02-15T17:26:12.057Z,38.23
2023-02-15T17:28:41.863Z,30.57
2023-02-15T17:31:09.413Z,30.17
2023-02-15T17:33:40.158Z,41.57
2023-02-15T17:36:16.924Z,35.43
2023-02-15T17:38:58.702Z,27.50
2023-02-15T17:41:32.213Z,30.63
2023-02-15T17:43:59.041Z,31.35
2023-02-15T17:46:27.351Z,34.00
2023-02-15T17:48:56.923Z,34.97
2023-02-15T17:51:23.986Z,32.90
2023-02-15T17:54:09.164Z,31.10
2023-02-15T17:56:37.665Z,32.70
2023-02-15T17:59:09.488Z,33.30
2023-02-15T18:01:59.520Z,26.17
2023-02-15T18:04:45.573Z,30.27
2023-02-15T18:07:32.649Z,31.90
2023-02-15T18:10:18.178Z,32.77
2023-02-15T18:12:44.927Z,32.53
2023-02-15T18:15:13.134Z,37.60
2023-02-15T18:17:46.020Z,32.87
2023-02-15T18:20:18.507Z,33.93
2023-02-15T18:22:46.519Z,36.60
2023-02-15T18:25:14.918Z,36.37
2023-02-15T18:27:41.748Z,44.37
2023-02-15T18:30:13.742Z,40.83
2023-02-15T18:32:41.364Z,36.23
2023-02-15T18:35:13.975Z,31.67
2023-02-15T18:37:41.963Z,32.13
2023-02-15T18:40:16.633Z,30.03
2023-02-15T18:42:48.135Z,30.77
2023-02-15T18:45:19.775Z,33.77
2023-02-15T18:47:47.528Z,31.57
2023-02-15T18:50:16.348Z,30.90
2023-02-15T18:52:46.093Z,31.37
2023-02-15T18:55:19.782Z,32.67
2023-02-15T18:57:48.043Z,33.87
2023-02-15T19:00:16.788Z,33.60
2023-02-15T19:02:43.710Z,35.53
2023-02-15T19:05:10.574Z,30.57
2023-02-15T19:07:37.891Z,32.97
2023-02-15T19:10:07.899Z,35.10
2023-02-15T19:12:35.355Z,39.47
2023-02-15T19:15:02.219Z,39.50
2023-02-15T19:17:28.984Z,39.50
2023-02-15T19:19:55.728Z,34.40
2023-02-15T19:22:27.363Z,43.90
2023-02-15T19:24:56.943Z,35.60
2023-02-15T19:27:31.364Z,49.80
2023-02-15T19:30:13.541Z,56.77
2023-02-15T19:32:40.419Z,39.40
2023-02-15T19:35:13.043Z,46.90
2023-02-15T19:37:42.573Z,41.37
2023-02-15T19:40:29.086Z,40.13
2023-02-15T19:42:56.637Z,51.73
2023-02-15T19:45:26.091Z,41.23
2023-02-15T19:47:55.149Z,40.80
2023-02-15T19:50:29.516Z,46.37
2023-02-15T19:52:57.607Z,45.23
2023-02-15T19:55:28.258Z,44.77
2023-02-15T19:57:56.969Z,40.63
2023-02-15T20:00:34.213Z,46.37
2023-02-15T20:03:01.519Z,48.00
2023-02-15T20:05:30.483Z,44.33
2023-02-15T20:07:58.445Z,48.27
2023-02-15T20:10:29.307Z,47.40
2023-02-15T20:12:56.948Z,43.90
2023-02-15T20:15:25.040Z,41.93
2023-02-15T20:17:52.525Z,39.63
2023-02-15T20:20:20.542Z,42.23
2023-02-15T20:22:50.016Z,45.10
2023-02-15T20:25:21.728Z,47.60
2023-02-15T20:27:48.964Z,53.60
2023-02-15T20:30:21.680Z,43.97
2023-02-15T20:32:49.409Z,50.33
2023-02-15T20:35:21.790Z,43.87
2023-02-15T20:37:56.406Z,39.93
2023-02-15T20:40:29.851Z,42.10
2023-02-15T20:42:56.665Z,42.87
2023-02-15T20:45:29.277Z,42.80
2023-02-15T20:47:56.456Z,46.27
2023-02-15T20:50:30.031Z,45.80
2023-02-15T20:52:58.635Z,44.97
2023-02-15T20:55:28.963Z,38.90
2023-02-15T20:57:57.004Z,38.10
2023-02-15T21:00:26.869Z,42.03
2023-02-15T21:03:01.678Z,46.30
2023-02-15T21:05:32.851Z,39.17
2023-02-15T21:07:59.947Z,36.90
2023-02-15T21:10:33.044Z,42.33
2023-02-15T21:13:01.027Z,44.00
2023-02-15T21:15:36.017Z,36.73
2023-02-15T21:18:06.520Z,37.80
2023-02-15T21:20:35.395Z,37.33
2023-02-15T21:23:04.726Z,39.20
2023-02-15T21:25:36.524Z,40.43
2023-02-15T21:28:04.633Z,37.30
2023-02-15T21:30:31.690Z,37.40
2023-02-15T21:32:58.439Z,40.23
2023-02-15T21:35:25.361Z,44.33
2023-02-15T21:37:53.305Z,40.27
2023-02-15T21:40:37.962Z,41.67
2023-02-15T21:43:31.572Z,47.33
2023-02-15T21:46:18.324Z,40.17
2023-02-15T21:48:46.420Z,39.67
2023-02-15T21:51:31.868Z,41.20
2023-02-15T21:53:58.583Z,58.53
2023-02-15T21:56:25.425Z,49.00
2023-02-15T21:58:52.151Z,44.57
2023-02-15T22:01:27.486Z,50.90
2023-02-15T22:03:57.570Z,50.03
2023-02-15T22:06:24.572Z,49.93
2023-02-15T22:08:51.422Z,61.13
2023-02-15T22:11:22.467Z,52.50
2023-02-15T22:13:50.456Z,53.00
2023-02-15T22:16:20.074Z,57.97
2023-02-15T22:18:47.317Z,54.37
2023-02-15T22:21:16.597Z,55.73
2023-02-15T22:23:43.516Z,45.60
2023-02-15T22:26:22.826Z,52.50
2023-02-15T22:28:50.066Z,49.73
2023-02-15T22:31:21.006Z,48.97
2023-02-15T22:33:49.808Z,48.13
2023-02-15T22:36:24.859Z,51.90
2023-02-15T22:38:52.297Z,50.37
2023-02-15T22:41:20.239Z,46.17
2023-02-15T22:43:50.280Z,49.60
2023-02-15T22:46:19.885Z,44.70
2023-02-15T22:48:50.174Z,45.60
2023-02-15T22:51:20.912Z,43.00
2023-02-15T22:53:52.243Z,48.53
2023-02-15T22:56:23.229Z,40.03
2023-02-15T22:58:50.514Z,40.67
2023-02-15T23:01:37.999Z,44.30
2023-02-15T23:04:05.004Z,41.30
2023-02-15T23:06:34.622Z,39.10
2023-02-15T23:09:01.765Z,41.13
2023-02-15T23:11:29.056Z,40.60
2023-02-15T23:13:56.056Z,44.50
2023-02-15T23:16:22.813Z,44.63
2023-02-15T23:18:50.057Z,42.67
2023-02-15T23:21:21.429Z,41.53
2023-02-15T23:23:54.540Z,44.90
2023-02-15T23:26:27.745Z,42.23
2023-02-15T23:28:57.343Z,43.83
2023-02-15T23:31:25.207Z,42.77
2023-02-15T23:33:53.136Z,40.33
2023-02-15T23:36:39.447Z,43.17
2023-02-15T23:39:33.736Z,40.23
2023-02-15T23:42:03.517Z,48.07
2023-02-15T23:44:30.851Z,45.23
2023-02-15T23:46:58.231Z,48.50
2023-02-15T23:49:25.255Z,46.10
2023-02-15T23:51:57.116Z,41.47
2023-02-15T23:54:27.009Z,42.40
2023-02-15T23:56:59.154Z,44.70
2023-02-15T23:59:28.677Z,41.63
